Time;durP1;ratioP1;P1;durP2;ratioP2;P2;SDS_P1;SDS_P2;PMS_P1;PMS_P2;Temp;Humidity;BMP_temperature;BMP_pressure;BME280_temperature;BME280_humidity;BME280_pressure;Samples;Min_cycle;Max_cycle;Signal;HPM_P1;HPM_P2
2022/10/14 00:01:02;;;;;;;27.52;18.60;;;;;;;16.97;87.06;98983.69;5092597;28;20063;-43
2022/10/14 00:03:28;;;;;;;17.42;13.77;;;;;;;17.09;88.14;98980.19;5092572;28;20016;-43
2022/10/14 00:05:53;;;;;;;19.88;13.93;;;;;;;17.34;87.72;98983.34;5092440;28;20115;-43
2022/10/14 00:08:19;;;;;;;15.65;11.75;;;;;;;17.70;87.66;98981.31;5091173;28;20052;-43
2022/10/14 00:10:44;;;;;;;22.15;13.13;;;;;;;17.71;85.42;98969.66;5090971;28;20028;-43
2022/10/14 00:13:10;;;;;;;15.40;11.45;;;;;;;17.40;85.13;98983.44;5092471;28;20020;-44
2022/10/14 00:15:40;;;;;;;19.10;11.60;;;;;;;17.17;85.29;98982.47;5091086;28;20069;-44
2022/10/14 00:18:07;;;;;;;15.23;11.48;;;;;;;17.02;85.97;98974.22;5091930;28;20040;-43
2022/10/14 00:20:34;;;;;;;15.98;11.93;;;;;;;17.10;86.99;98976.50;5092331;28;20024;-44
2022/10/14 00:23:00;;;;;;;28.83;18.10;;;;;;;17.30;87.45;98974.22;5092224;28;20066;-44
2022/10/14 00:25:27;;;;;;;32.28;27.52;;;;;;;17.66;86.79;98977.53;5092166;28;20052;-44
2022/10/14 00:27:53;;;;;;;20.38;16.10;;;;;;;17.92;86.02;98978.00;5092181;28;20024;-44
2022/10/14 00:30:19;;;;;;;19.33;11.95;;;;;;;18.04;84.75;98977.91;5092033;28;20020;-43
2022/10/14 00:32:44;;;;;;;16.90;10.30;;;;;;;18.12;84.84;98980.16;5090810;28;20406;-44
2022/10/14 00:35:10;;;;;;;13.73;11.73;;;;;;;18.11;83.56;98974.06;5092045;28;20494;-44
2022/10/14 00:37:36;;;;;;;15.25;11.18;;;;;;;17.83;81.88;98969.63;5090700;28;20046;-44
2022/10/14 00:40:03;;;;;;;16.90;10.60;;;;;;;17.45;82.75;98975.56;5092047;28;20022;-44
2022/10/14 00:42:32;;;;;;;24.10;15.18;;;;;;;17.39;83.53;98973.88;5090693;28;20024;-44
2022/10/14 00:45:11;;;;;;;13.80;10.63;;;;;;;17.22;82.85;98969.31;5107619;28;20105;-44
2022/10/14 00:47:37;;;;;;;42.80;13.23;;;;;;;16.99;84.08;98967.53;5091949;28;20069;-44
2022/10/14 00:50:03;;;;;;;33.35;12.30;;;;;;;16.83;85.02;98962.97;5090503;28;20031;-44
2022/10/14 00:52:29;;;;;;;14.00;12.18;;;;;;;16.65;85.71;98959.41;5090551;28;20111;-44
2022/10/14 00:55:13;;;;;;;18.67;10.80;;;;;;;16.53;85.82;98958.63;5090529;28;20073;-44
2022/10/14 00:57:39;;;;;;;16.33;11.23;;;;;;;16.39;86.22;98963.34;5091869;28;20511;-44
2022/10/14 01:00:12;;;;;;;17.88;11.13;;;;;;;16.38;86.49;98967.03;5091805;28;20052;-44
2022/10/14 01:02:38;;;;;;;16.73;12.30;;;;;;;16.49;86.89;98968.88;5091799;28;20049;-44
2022/10/14 01:05:05;;;;;;;34.63;23.38;;;;;;;16.67;87.49;98969.78;5091775;28;20028;-44
2022/10/14 01:08:15;;;;;;;16.65;13.40;;;;;;;17.04;86.08;98964.19;5091734;28;20020;-44
2022/10/14 01:11:01;;;;;;;21.45;11.52;;;;;;;17.55;86.41;98965.94;5091172;28;20036;-44
2022/10/14 01:13:34;;;;;;;20.08;11.20;;;;;;;17.71;84.63;98961.69;5091956;28;20036;-44
2022/10/14 01:16:25;;;;;;;18.23;11.13;;;;;;;17.95;83.92;98958.94;5090411;28;20078;-44
2022/10/14 01:18:57;;;;;;;22.13;11.20;;;;;;;18.16;83.99;98952.88;5090127;28;20055;-44
2022/10/14 01:21:50;;;;;;;28.85;11.25;;;;;;;18.29;82.30;98953.56;5090317;28;20032;-44
2022/10/14 01:24:43;;;;;;;19.20;10.63;;;;;;;18.36;80.87;98948.91;5091641;28;20512;-44
2022/10/14 01:27:41;;;;;;;14.18;9.35;;;;;;;18.30;81.04;98949.88;5090401;28;20028;-44
2022/10/14 01:30:13;;;;;;;17.73;8.82;;;;;;;18.40;81.87;98951.88;5093822;28;20043;-44
2022/10/14 01:32:58;;;;;;;20.20;9.30;;;;;;;18.41;80.63;98950.81;5094209;28;20409;-44
2022/10/14 01:35:35;;;;;;;27.15;10.13;;;;;;;18.25;79.68;98947.13;5095467;28;20027;-44
2022/10/14 01:38:07;;;;;;;21.02;9.27;;;;;;;18.20;80.82;98941.75;5095674;28;20404;-44
2022/10/14 01:40:49;;;;;;;17.23;8.60;;;;;;;18.48;80.04;98943.47;5095346;28;20028;-44
2022/10/14 01:43:18;;;;;;;12.82;8.25;;;;;;;18.46;79.51;98938.41;5094064;28;20115;-44
2022/10/14 01:45:47;;;;;;;16.13;9.55;;;;;;;18.40;79.17;98935.94;5095250;28;20111;-44
2022/10/14 01:48:18;;;;;;;15.32;8.60;;;;;;;18.60;79.48;98932.75;5095218;28;20028;-44
2022/10/14 01:50:46;;;;;;;12.93;9.27;;;;;;;18.74;78.54;98926.00;5093819;28;20511;-44
2022/10/14 01:53:24;;;;;;;14.85;10.45;;;;;;;18.80;77.11;98916.28;5095157;28;20055;-44
2022/10/14 01:55:54;;;;;;;17.77;13.90;;;;;;;18.63;77.21;98918.94;5095078;28;20509;-44
2022/10/14 01:58:24;;;;;;;14.13;10.50;;;;;;;18.41;76.36;98914.44;5095016;28;20038;-44
2022/10/14 02:00:50;;;;;;;18.02;11.43;;;;;;;18.16;76.82;98910.34;5094978;28;20024;-44
2022/10/14 02:03:15;;;;;;;15.02;13.40;;;;;;;18.02;76.78;98906.44;5094855;28;20051;-44
2022/10/14 02:05:48;;;;;;;19.83;12.07;;;;;;;17.88;76.89;98907.81;5094800;28;20051;-44
2022/10/14 02:08:28;;;;;;;14.55;10.77;;;;;;;17.72;77.00;98909.41;5093461;28;20081;-44
2022/10/14 02:11:10;;;;;;;15.35;10.05;;;;;;;17.59;78.00;98915.84;5094707;28;20201;-44
2022/10/14 02:14:10;;;;;;;14.90;9.05;;;;;;;17.58;78.93;98912.38;5093400;28;20431;-44
2022/10/14 02:17:02;;;;;;;14.23;9.77;;;;;;;17.62;78.23;98903.94;5094638;28;20478;-44
2022/10/14 02:19:46;;;;;;;19.88;11.10;;;;;;;17.72;79.30;98901.44;5093023;28;20040;-44
2022/10/14 02:22:31;;;;;;;16.98;9.90;;;;;;;17.80;77.95;98898.38;5093244;28;20493;-44
2022/10/14 02:25:02;;;;;;;12.80;9.82;;;;;;;17.64;77.46;98905.28;5093230;28;20445;-44
2022/10/14 02:27:30;;;;;;;20.05;12.20;;;;;;;17.59;77.87;98907.88;5094491;28;20036;-44
2022/10/14 02:29:58;;;;;;;13.50;10.90;;;;;;;17.63;78.49;98905.56;5094259;28;20436;-44
2022/10/14 02:32:27;;;;;;;15.82;12.32;;;;;;;17.74;78.79;98908.09;5094270;28;20735;-44
2022/10/14 02:34:56;;;;;;;13.90;11.00;;;;;;;17.78;78.94;98900.47;5094170;28;20066;-44
2022/10/14 02:37:24;;;;;;;20.63;12.73;;;;;;;17.64;78.34;98897.34;5092847;28;20077;-44
2022/10/14 02:40:04;;;;;;;22.40;9.63;;;;;;;17.66;79.42;98897.09;5092944;28;20047;-44
2022/10/14 02:42:30;;;;;;;15.40;9.30;;;;;;;17.81;79.60;98891.22;5092867;28;20035;-44
2022/10/14 02:45:00;;;;;;;15.32;11.70;;;;;;;17.94;77.87;98886.41;5092790;28;20020;-44
2022/10/14 02:47:27;;;;;;;19.23;10.05;;;;;;;17.87;78.31;98882.34;5094028;28;20059;-44
2022/10/14 02:49:53;;;;;;;13.32;10.57;;;;;;;17.98;78.24;98883.28;5092637;28;20016;-44
2022/10/14 02:52:19;;;;;;;27.02;17.70;;;;;;;18.06;77.31;98886.31;5093892;28;20024;-44
2022/10/14 02:54:45;;;;;;;16.13;12.50;;;;;;;18.10;77.84;98890.09;5092598;28;20432;-44
2022/10/14 02:57:11;;;;;;;16.75;12.75;;;;;;;18.08;76.05;98886.88;5093838;28;20024;-44
2022/10/14 02:59:38;;;;;;;20.58;11.63;;;;;;;17.96;76.60;98886.97;5092619;28;20397;-44
2022/10/14 03:02:06;;;;;;;19.23;10.50;;;;;;;18.06;77.96;98878.34;5093907;28;20038;-44
2022/10/14 03:04:35;;;;;;;19.00;10.85;;;;;;;18.55;77.39;98872.31;5093681;28;20077;-44
2022/10/14 03:07:01;;;;;;;17.63;9.93;;;;;;;18.70;75.58;98867.19;5093693;28;20031;-44
2022/10/14 03:09:27;;;;;;;9.25;7.40;;;;;;;18.48;73.70;98863.75;5093537;28;20016;-44
2022/10/14 03:11:52;;;;;;;19.67;13.43;;;;;;;18.15;73.27;98865.47;5092355;28;20563;-44
2022/10/14 03:14:18;;;;;;;19.02;13.48;;;;;;;17.93;74.04;98870.75;5093491;28;20044;-44
2022/10/14 03:16:44;;;;;;;22.67;12.88;;;;;;;17.78;74.76;98873.94;5093481;28;20032;-44
2022/10/14 03:19:09;;;;;;;25.55;12.60;;;;;;;17.84;76.08;98877.50;5093091;28;20061;-44
2022/10/14 03:21:35;;;;;;;20.42;9.35;;;;;;;17.98;76.17;98862.03;5092072;28;20028;-44
2022/10/14 03:24:01;;;;;;;17.70;10.00;;;;;;;18.14;76.21;98855.88;5092054;28;20024;-44
2022/10/14 03:26:27;;;;;;;16.63;10.32;;;;;;;18.32;75.83;98857.44;5091986;28;20024;-44
2022/10/14 03:28:53;;;;;;;10.32;7.65;;;;;;;18.43;75.12;98855.69;5093258;28;20603;-44
2022/10/14 03:31:18;;;;;;;13.80;10.65;;;;;;;18.44;74.47;98844.84;5092097;28;20056;-44
2022/10/14 03:33:44;;;;;;;10.48;7.72;;;;;;;18.39;73.56;98844.78;5091868;28;20035;-44
2022/10/14 03:36:11;;;;;;;14.48;6.65;;;;;;;18.05;73.45;98852.03;5091794;28;20020;-44
2022/10/14 03:38:36;;;;;;;15.23;7.10;;;;;;;17.77;74.38;98848.44;5093265;28;20024;-44
2022/10/14 03:41:02;;;;;;;12.75;7.68;;;;;;;17.71;75.74;98849.41;5093007;28;20516;-44
2022/10/14 03:43:28;;;;;;;15.77;6.97;;;;;;;18.03;75.93;98843.50;5091639;28;20030;-44
2022/10/14 03:45:54;;;;;;;12.50;6.60;;;;;;;18.23;75.73;98849.09;5091666;28;20497;-44
2022/10/14 03:48:20;;;;;;;15.52;8.77;;;;;;;18.71;75.14;98849.38;5092859;28;20035;-44
2022/10/14 03:50:46;;;;;;;14.05;8.13;;;;;;;18.84;73.55;98849.03;5092382;28;20024;-44
2022/10/14 03:53:12;;;;;;;23.48;9.80;;;;;;;18.67;73.30;98849.09;5092687;28;20024;-44
2022/10/14 03:55:38;;;;;;;15.57;9.63;;;;;;;18.39;73.46;98847.44;5092948;28;20363;-44
2022/10/14 03:58:04;;;;;;;19.40;9.85;;;;;;;18.13;74.07;98849.78;5091397;28;20131;-44
2022/10/14 04:00:30;;;;;;;12.90;9.80;;;;;;;18.07;74.92;98849.94;5092618;28;20062;-44
2022/10/14 04:02:56;;;;;;;13.60;9.50;;;;;;;18.34;74.75;98856.13;5091531;28;20114;-44
2022/10/14 04:05:21;;;;;;;21.08;8.85;;;;;;;18.52;73.94;98841.75;5091248;28;20343;-44
2022/10/14 04:07:47;;;;;;;17.40;9.50;;;;;;;18.68;72.95;98844.56;5092562;28;20478;-44
2022/10/14 04:10:13;;;;;;;15.25;10.32;;;;;;;18.55;72.82;98843.09;5091032;28;20028;-44
2022/10/14 04:12:42;;;;;;;19.50;10.82;;;;;;;18.57;73.06;98843.66;5092409;28;20031;-44
2022/10/14 04:15:08;;;;;;;29.70;11.20;;;;;;;18.52;72.88;98839.09;5092298;28;20059;-44
2022/10/14 04:17:34;;;;;;;17.42;10.75;;;;;;;18.55;73.48;98838.59;5092348;28;20574;-44
2022/10/14 04:20:00;;;;;;;13.98;9.00;;;;;;;18.73;72.67;98841.97;5090793;28;20052;-44
2022/10/14 04:22:26;;;;;;;17.98;9.85;;;;;;;18.82;71.97;98837.03;5091321;28;20591;-44
2022/10/14 04:24:51;;;;;;;18.40;9.13;;;;;;;18.86;71.71;98838.16;5092183;28;20107;-44
2022/10/14 04:27:18;;;;;;;17.67;9.15;;;;;;;19.01;71.76;98835.63;5091143;28;20105;-44
2022/10/14 04:29:43;;;;;;;14.90;6.07;;;;;;;19.18;71.15;98835.53;5092125;28;20059;-44
2022/10/14 04:32:09;;;;;;;10.00;7.38;;;;;;;19.11;70.38;98838.38;5092115;28;20027;-44
2022/10/14 04:34:35;;;;;;;18.92;6.53;;;;;;;18.94;70.89;98843.03;5091121;28;20479;-44
2022/10/14 04:37:00;;;;;;;19.33;8.82;;;;;;;18.84;71.07;98842.91;5092109;28;20020;-44
2022/10/14 04:39:26;;;;;;;15.32;9.60;;;;;;;18.85;70.94;98847.16;5092031;28;20024;-44
2022/10/14 04:41:52;;;;;;;8.48;6.68;;;;;;;18.82;70.98;98839.72;5090711;28;20111;-44
2022/10/14 04:44:17;;;;;;;19.02;10.73;;;;;;;18.87;71.16;98840.53;5091942;28;20032;-44
2022/10/14 04:46:43;;;;;;;10.85;8.55;;;;;;;19.01;71.23;98845.47;5090614;28;20020;-44
2022/10/14 04:49:09;;;;;;;17.02;6.30;;;;;;;19.14;70.79;98843.22;5091883;28;20056;-44
2022/10/14 04:51:35;;;;;;;7.28;5.55;;;;;;;19.27;70.08;98839.31;5090583;28;20024;-44
2022/10/14 04:54:01;;;;;;;18.95;8.07;;;;;;;19.40;70.18;98838.09;5090519;28;20177;-44
2022/10/14 04:56:26;;;;;;;21.30;8.30;;;;;;;19.31;69.33;98837.75;5092115;28;20040;-45
2022/10/14 04:58:52;;;;;;;17.42;7.68;;;;;;;19.25;70.03;98849.41;5091821;28;20020;-44
2022/10/14 05:01:18;;;;;;;15.15;6.95;;;;;;;19.18;69.80;98846.16;5090437;28;20040;-44
2022/10/14 05:03:44;;;;;;;13.23;8.90;;;;;;;18.92;70.03;98856.56;5091979;28;20402;-44
2022/10/14 05:06:09;;;;;;;17.02;8.57;;;;;;;18.60;71.88;98863.63;5095932;28;20021;-44
2022/10/14 05:08:36;;;;;;;18.83;8.70;;;;;;;18.31;73.67;98867.28;5096008;28;20035;-44
2022/10/14 05:11:01;;;;;;;18.60;9.00;;;;;;;18.27;74.03;98875.97;5094499;28;20020;-44
2022/10/14 05:13:29;;;;;;;11.05;9.02;;;;;;;18.20;74.96;98875.34;5077649;28;20062;-44
2022/10/14 05:15:55;;;;;;;16.98;9.65;;;;;;;18.09;75.99;98879.69;5095825;28;20501;-44
2022/10/14 05:18:21;;;;;;;23.65;10.75;;;;;;;17.95;77.03;98873.97;5094215;28;20036;-43
2022/10/14 05:20:46;;;;;;;20.13;10.50;;;;;;;17.88;77.49;98868.78;5094435;28;20028;-44
2022/10/14 05:23:12;;;;;;;24.20;9.48;;;;;;;17.74;78.32;98873.59;5095628;28;20520;-44
2022/10/14 05:25:38;;;;;;;21.38;9.15;;;;;;;17.71;78.95;98881.25;5094343;28;20016;-44
2022/10/14 05:28:04;;;;;;;24.50;11.00;;;;;;;17.59;79.28;98865.41;5095645;28;20028;-44
2022/10/14 05:30:29;;;;;;;18.73;13.00;;;;;;;17.47;79.90;98873.44;5095458;28;20081;-44
2022/10/14 05:32:56;;;;;;;25.70;11.27;;;;;;;17.35;81.14;98873.53;5095574;28;20020;-44
2022/10/14 05:35:22;;;;;;;18.88;10.65;;;;;;;17.31;81.76;98869.75;5095382;28;20482;-44
2022/10/14 05:37:52;;;;;;;19.73;11.32;;;;;;;17.23;82.29;98859.53;5095392;28;20021;-44
2022/10/14 05:40:18;;;;;;;16.98;11.10;;;;;;;17.09;82.86;98859.00;5094019;28;20024;-44
2022/10/14 05:42:44;;;;;;;15.70;11.73;;;;;;;17.01;83.47;98863.91;5093993;28;20448;-44
2022/10/14 05:45:10;;;;;;;20.52;11.30;;;;;;;17.01;84.45;98858.59;5093930;28;20103;-43
2022/10/14 05:47:35;;;;;;;21.40;13.18;;;;;;;17.10;85.20;98854.50;5095242;28;20069;-44
2022/10/14 05:50:02;;;;;;;6.68;4.55;;;;;;;17.13;85.26;98854.03;5093769;28;20128;-44
2022/10/14 05:52:30;;;;;;;20.05;9.77;;;;;;;17.09;84.31;98848.41;5095395;28;20016;-44
2022/10/14 05:54:56;;;;;;;14.77;11.45;;;;;;;17.01;83.94;98850.66;5095029;28;20122;-44
2022/10/14 05:57:22;;;;;;;8.85;6.10;;;;;;;16.84;83.89;98848.78;5094977;28;20100;-44
2022/10/14 05:59:47;;;;;;;18.65;11.93;;;;;;;16.72;83.96;98840.00;5095019;28;20051;-44
2022/10/14 06:02:13;;;;;;;12.20;8.38;;;;;;;16.47;84.00;98838.47;5094810;28;20020;-44
2022/10/14 06:04:41;;;;;;;23.67;16.70;;;;;;;16.11;84.83;98840.38;5094890;28;20070;-44
2022/10/14 06:07:10;;;;;;;13.52;8.25;;;;;;;16.13;86.68;98843.59;5094791;28;20103;-44
2022/10/14 06:09:37;;;;;;;11.50;6.88;;;;;;;16.39;86.29;98841.50;5094744;28;20079;-44
2022/10/14 06:12:04;;;;;;;20.33;8.35;;;;;;;16.67;86.15;98840.72;5093366;28;20031;-44
2022/10/14 06:14:30;;;;;;;12.55;8.80;;;;;;;17.03;85.95;98832.66;5093052;28;20081;-44
2022/10/14 06:16:55;;;;;;;14.48;7.70;;;;;;;17.50;85.22;98835.81;5093367;28;20115;-44
2022/10/14 06:19:21;;;;;;;11.75;7.32;;;;;;;17.91;83.94;98847.06;5094564;28;20092;-44
2022/10/14 06:21:47;;;;;;;10.15;5.30;;;;;;;18.10;82.14;98841.47;5093247;28;20493;-44
2022/10/14 06:24:13;;;;;;;7.15;5.63;;;;;;;17.93;79.84;98841.53;5093163;28;20028;-44
2022/10/14 06:26:42;;;;;;;29.42;7.78;;;;;;;17.52;79.12;98852.28;5094403;28;20073;-44
2022/10/14 06:29:08;;;;;;;7.78;5.18;;;;;;;17.07;78.75;98847.84;5093266;28;20035;-44
2022/10/14 06:31:34;;;;;;;11.02;4.70;;;;;;;16.80;79.53;98854.72;5092993;28;20029;-44
2022/10/14 06:34:04;;;;;;;12.75;4.97;;;;;;;16.63;79.77;98857.34;5094310;28;20020;-44
2022/10/14 06:36:29;;;;;;;8.10;3.97;;;;;;;16.54;79.65;98856.88;5092903;28;20569;-44
2022/10/14 06:38:55;;;;;;;10.77;4.90;;;;;;;16.44;79.68;98862.81;5093231;28;20039;-44
2022/10/14 06:41:21;;;;;;;7.28;4.28;;;;;;;16.44;81.45;98857.50;5094195;28;20020;-44
2022/10/14 06:43:47;;;;;;;8.10;4.43;;;;;;;16.57;82.29;98853.78;5092852;28;20024;-44
2022/10/14 06:46:13;;;;;;;15.65;4.90;;;;;;;16.69;82.57;98854.53;5094101;28;20054;-44
2022/10/14 06:48:38;;;;;;;12.82;5.07;;;;;;;16.72;81.98;98858.56;5094089;28;20023;-44
2022/10/14 06:51:04;;;;;;;16.30;4.57;;;;;;;16.71;81.30;98859.63;5092567;28;20468;-44
2022/10/14 06:53:30;;;;;;;10.80;4.40;;;;;;;16.67;80.62;98866.41;5094243;28;20024;-43
2022/10/14 06:56:06;;;;;;;12.18;4.97;;;;;;;16.65;81.38;98864.00;5092525;28;20027;-44
2022/10/14 06:58:32;;;;;;;11.52;4.60;;;;;;;16.88;81.08;98863.16;5093952;28;20060;-44
2022/10/14 07:01:06;;;;;;;9.57;3.97;;;;;;;16.92;80.01;98866.94;5093750;28;20077;-44
2022/10/14 07:03:37;;;;;;;7.28;3.90;;;;;;;16.96;80.00;98861.94;5093793;28;20047;-44
2022/10/14 07:06:07;;;;;;;9.05;4.43;;;;;;;16.98;79.58;98873.13;5093925;28;20020;-44
2022/10/14 07:08:32;;;;;;;7.25;2.97;;;;;;;16.99;79.59;98866.78;5093655;28;20028;-44
2022/10/14 07:10:59;;;;;;;11.23;3.50;;;;;;;17.05;79.21;98873.78;5092161;28;20023;-44
2022/10/14 07:13:25;;;;;;;14.90;3.67;;;;;;;17.05;79.57;98875.66;5093567;28;20076;-44
2022/10/14 07:15:51;;;;;;;7.15;3.00;;;;;;;17.13;78.53;98870.75;5093462;28;20016;-44
2022/10/14 07:18:17;;;;;;;8.75;3.85;;;;;;;17.19;78.55;98874.31;5093396;28;20051;-44
2022/10/14 07:20:44;;;;;;;12.32;3.95;;;;;;;17.19;77.49;98879.63;5092340;28;20485;-44
2022/10/14 07:23:10;;;;;;;4.88;2.83;;;;;;;17.12;77.42;98884.25;5092281;28;20020;-44
2022/10/14 07:25:36;;;;;;;11.65;4.25;;;;;;;17.11;78.37;98886.09;5092908;28;20158;-44
2022/10/14 07:28:01;;;;;;;6.72;3.33;;;;;;;17.15;77.54;98889.88;5091639;28;20032;-44
2022/10/14 07:30:27;;;;;;;8.20;3.20;;;;;;;17.17;77.40;98890.44;5093188;28;20057;-44
2022/10/14 07:32:53;;;;;;;16.92;3.28;;;;;;;17.21;77.33;98885.47;5093452;28;20026;-44
2022/10/14 07:35:19;;;;;;;10.27;2.90;;;;;;;17.24;76.87;98897.44;5093161;28;20042;-44
2022/10/14 07:37:45;;;;;;;7.75;3.80;;;;;;;17.33;76.45;98904.00;5093116;28;20027;-44
2022/10/14 07:40:12;;;;;;;10.27;3.50;;;;;;;17.49;77.05;98902.41;5091720;28;20032;-44
2022/10/14 07:42:38;;;;;;;9.70;3.10;;;;;;;17.68;75.43;98901.13;5091702;28;20024;-44
2022/10/14 07:45:05;;;;;;;11.38;3.60;;;;;;;17.76;75.31;98895.41;5091623;28;20093;-44
2022/10/14 07:47:32;;;;;;;8.40;3.92;;;;;;;17.86;75.20;98902.75;5091687;28;20085;-44
2022/10/14 07:50:00;;;;;;;8.07;4.00;;;;;;;17.86;74.87;98902.75;5091579;28;20020;-44
2022/10/14 07:52:25;;;;;;;8.75;4.20;;;;;;;17.91;75.68;98908.16;5093067;28;20489;-44
2022/10/14 07:54:51;;;;;;;6.32;3.67;;;;;;;17.93;75.23;98911.38;5091549;28;20036;-44
2022/10/14 07:57:17;;;;;;;7.55;3.28;;;;;;;18.02;75.61;98917.06;5092766;28;20031;-44
2022/10/14 07:59:43;;;;;;;12.50;4.68;;;;;;;18.11;75.58;98920.09;5092967;28;20114;-44
2022/10/14 08:02:10;;;;;;;11.93;5.22;;;;;;;18.09;74.61;98916.88;5091345;28;20563;-44
2022/10/14 08:04:36;;;;;;;8.00;4.30;;;;;;;18.05;75.08;98919.25;5092552;28;20073;-44
2022/10/14 08:07:03;;;;;;;8.10;3.45;;;;;;;18.12;75.61;98922.53;5092564;28;20020;-44
2022/10/14 08:09:30;;;;;;;8.25;3.70;;;;;;;18.28;74.06;98914.78;5092705;28;20091;-44
2022/10/14 08:11:55;;;;;;;9.40;4.40;;;;;;;18.23;73.71;98920.00;5092485;28;20020;-44
2022/10/14 08:14:21;;;;;;;22.15;19.75;;;;;;;18.25;73.96;98920.56;5092466;28;20398;-44
2022/10/14 08:16:47;;;;;;;18.77;11.68;;;;;;;18.45;73.86;98917.38;5091095;28;20190;-44
2022/10/14 08:19:13;;;;;;;32.17;25.25;;;;;;;18.57;73.07;98918.06;5092086;28;20054;-44
2022/10/14 08:21:40;;;;;;;7.18;3.92;;;;;;;18.72;71.96;98912.16;5092376;28;20016;-44
2022/10/14 08:24:05;;;;;;;7.53;5.20;;;;;;;18.94;71.48;98907.66;5092332;28;20081;-44
2022/10/14 08:26:34;;;;;;;8.98;3.13;;;;;;;19.26;70.20;98906.13;5092221;28;20492;-44
2022/10/14 08:29:03;;;;;;;10.65;3.42;;;;;;;19.60;69.76;98908.53;5090932;28;20117;-44
2022/10/14 08:31:30;;;;;;;6.22;3.65;;;;;;;19.59;69.23;98897.06;5092164;28;20111;-44
2022/10/14 08:33:56;;;;;;;6.40;3.40;;;;;;;19.73;68.10;98902.81;5090780;28;20489;-44
2022/10/14 08:36:22;;;;;;;8.23;2.97;;;;;;;19.83;67.86;98892.22;5092107;28;20028;-44
2022/10/14 08:38:51;;;;;;;10.88;3.55;;;;;;;19.91;68.44;98893.63;5092033;28;20044;-44
2022/10/14 08:41:44;;;;;;;5.85;3.08;;;;;;;20.35;66.87;98890.69;5092072;28;20085;-44
2022/10/14 08:44:17;;;;;;;5.65;2.80;;;;;;;20.54;65.97;98894.50;5090700;28;20052;-44
2022/10/14 08:46:49;;;;;;;6.20;2.85;;;;;;;20.65;65.13;98891.91;5091996;28;20027;-44
2022/10/14 08:49:25;;;;;;;4.35;2.22;;;;;;;20.37;62.38;98896.56;5090808;28;20036;-44
2022/10/14 08:52:11;;;;;;;7.57;2.20;;;;;;;19.84;63.60;98896.50;5091917;28;20032;-44
2022/10/14 08:54:43;;;;;;;5.75;2.55;;;;;;;19.56;65.17;98902.94;5091960;28;20509;-44
2022/10/14 08:57:18;;;;;;;5.18;2.63;;;;;;;19.33;65.97;98904.03;5091869;28;20016;-44
2022/10/14 08:59:44;;;;;;;9.55;4.80;;;;;;;19.18;66.84;98912.69;5090688;28;20026;-44
2022/10/14 09:02:45;;;;;;;11.45;6.60;;;;;;;19.15;67.52;98915.84;5090510;28;20067;-44
2022/10/14 09:05:16;;;;;;;5.53;4.07;;;;;;;19.32;67.79;98908.56;5091885;28;20062;-45
2022/10/14 09:07:44;;;;;;;15.38;4.28;;;;;;;19.99;68.07;98908.31;5090477;28;20420;-44
2022/10/14 09:10:24;;;;;;;6.38;2.78;;;;;;;20.82;65.17;98902.34;5090253;28;20024;-44
2022/10/14 09:12:52;;;;;;;10.98;2.55;;;;;;;21.29;63.24;98904.09;5090595;28;20409;-44
2022/10/14 09:15:33;;;;;;;5.28;2.47;;;;;;;21.97;62.30;98905.69;5091728;28;20378;-44
2022/10/14 09:18:23;;;;;;;5.30;2.35;;;;;;;22.28;58.91;98899.25;5092863;28;20588;-45
2022/10/14 09:20:49;;;;;;;5.97;2.10;;;;;;;21.85;59.17;98900.63;5090383;28;20043;-45
2022/10/14 09:23:22;;;;;;;6.38;1.95;;;;;;;21.79;60.45;98901.69;5091677;28;20069;-45
2022/10/14 09:25:54;;;;;;;9.38;2.20;;;;;;;22.16;59.35;98898.72;5091552;28;20103;-45
2022/10/14 09:28:26;;;;;;;9.70;2.00;;;;;;;22.41;57.54;98895.19;5090286;28;20024;-45
2022/10/14 09:30:51;;;;;;;4.75;2.42;;;;;;;22.17;58.38;98892.28;5090218;28;20020;-44
2022/10/14 09:33:19;;;;;;;4.28;2.40;;;;;;;22.17;57.65;98896.84;5091573;28;20028;-45
2022/10/14 09:35:47;;;;;;;4.05;1.90;;;;;;;22.16;58.22;98895.25;5091412;28;20110;-45
2022/10/14 09:38:14;;;;;;;10.80;2.95;;;;;;;22.06;58.74;98898.75;5090252;28;20035;-44
2022/10/14 09:40:43;;;;;;;6.18;2.38;;;;;;;22.49;58.16;98902.63;5090218;28;20129;-45
2022/10/14 09:43:08;;;;;;;5.88;2.20;;;;;;;22.89;57.49;98895.50;5091443;28;20520;-45
2022/10/14 09:46:06;;;;;;;5.55;2.28;;;;;;;23.04;56.62;98889.31;5091398;28;20028;-44
2022/10/14 09:48:41;;;;;;;7.53;3.58;;;;;;;23.30;57.39;98895.28;5091386;28;20043;-45
2022/10/14 09:51:28;;;;;;;8.65;3.80;;;;;;;23.72;57.19;98885.84;5094780;28;20028;-45
2022/10/14 09:54:00;;;;;;;10.63;4.32;;;;;;;23.89;56.77;98898.06;5094649;28;20259;-45
2022/10/14 09:56:27;;;;;;;6.55;3.50;;;;;;;23.97;56.50;98897.44;5095085;28;20073;-45
2022/10/14 09:58:56;;;;;;;16.73;3.88;;;;;;;24.00;56.49;98902.22;5095053;28;20055;-45
2022/10/14 10:01:26;;;;;;;7.30;3.10;;;;;;;23.93;55.43;98899.09;5093714;28;20457;-44
2022/10/14 10:03:54;;;;;;;6.93;2.95;;;;;;;23.69;56.11;98890.97;5094948;28;20098;-45
2022/10/14 10:06:22;;;;;;;13.88;3.70;;;;;;;23.48;56.73;98893.00;5093526;28;20024;-45
2022/10/14 10:08:54;;;;;;;7.55;2.83;;;;;;;23.46;56.83;98903.19;5095089;28;20024;-45
2022/10/14 10:11:32;;;;;;;5.13;3.13;;;;;;;23.41;56.79;98908.63;5094740;28;20077;-45
2022/10/14 10:13:58;;;;;;;14.23;3.67;;;;;;;23.47;57.79;98907.50;5094933;28;20398;-45
2022/10/14 10:16:33;;;;;;;5.40;3.33;;;;;;;23.83;56.75;98904.56;5094692;28;20054;-45
2022/10/14 10:19:26;;;;;;;12.35;3.38;;;;;;;24.00;56.27;98896.06;5093127;28;20054;-45
2022/10/14 10:21:53;;;;;;;10.25;3.38;;;;;;;24.33;55.48;98905.91;5094566;28;20036;-45
2022/10/14 10:24:22;;;;;;;9.38;3.67;;;;;;;24.49;55.04;98901.16;5094595;28;20024;-45
2022/10/14 10:26:49;;;;;;;3.90;3.05;;;;;;;24.90;54.24;98894.50;5094474;28;20028;-44
2022/10/14 10:29:33;;;;;;;11.10;2.90;;;;;;;25.07;52.73;98894.81;5094413;28;20047;-45
2022/10/14 10:32:05;;;;;;;10.32;3.13;;;;;;;24.95;52.87;98893.63;5094596;28;20482;-45
2022/10/14 10:34:55;;;;;;;10.13;3.85;;;;;;;24.93;53.63;98891.22;5094280;28;20027;-45
2022/10/14 10:37:40;;;;;;;12.57;4.03;;;;;;;24.79;53.06;98891.16;5093036;28;20024;-45
2022/10/14 10:40:24;;;;;;;;;;;;;;;24.55;54.66;98882.34;5093385;28;20028;-44
2022/10/14 10:43:19;;;;;;;11.02;3.05;;;;;;;24.43;54.54;98878.16;5094237;28;19908;-45
2022/10/14 10:46:11;;;;;;;11.60;4.10;;;;;;;24.34;54.63;98882.56;5092867;28;20517;-45
2022/10/14 10:48:53;;;;;;;8.35;3.55;;;;;;;24.31;54.48;98875.88;5092809;28;20386;-45
2022/10/14 10:51:36;;;;;;;15.13;3.30;;;;;;;24.24;54.68;98874.63;5094048;28;20104;-45
2022/10/14 10:54:06;;;;;;;10.32;3.88;;;;;;;24.35;54.74;98876.13;5092731;28;20503;-45
2022/10/14 10:56:48;;;;;;;9.35;3.50;;;;;;;24.55;54.04;98876.97;5094000;28;20111;-45
2022/10/14 10:59:51;;;;;;;14.05;4.00;;;;;;;24.47;54.25;98878.41;5092631;28;20032;-45
2022/10/14 11:02:43;;;;;;;12.20;3.88;;;;;;;24.40;54.40;98873.34;5091353;28;20059;-45
2022/10/14 11:05:42;;;;;;;8.00;3.22;;;;;;;24.18;54.85;98865.84;5093768;28;20066;-45
2022/10/14 11:14:35;;;;;;;17.30;4.20;;;;;;;24.80;54.23;98855.16;5093931;28;20150;-45
2022/10/14 11:17:03;;;;;;;13.75;3.95;;;;;;;25.03;53.49;98864.25;5093589;28;20107;-45
2022/10/14 11:19:59;;;;;;;13.38;4.20;;;;;;;25.02;53.38;98861.84;5092751;28;20044;-45
2022/10/14 11:22:47;;;;;;;6.53;3.72;;;;;;;25.09;53.27;98855.03;5092516;28;20509;-45
2022/10/14 11:25:29;;;;;;;7.70;4.18;;;;;;;24.80;53.26;98859.75;5091086;28;20115;-45
2022/10/14 11:28:03;;;;;;;8.30;3.80;;;;;;;24.87;53.49;98855.63;5092436;28;20028;-45
2022/10/14 11:30:31;;;;;;;17.92;4.03;;;;;;;24.78;53.80;98856.56;5092320;28;20105;-45
2022/10/14 11:33:12;;;;;;;8.20;3.65;;;;;;;24.80;53.56;98855.16;5092276;28;20028;-45
2022/10/14 11:35:57;;;;;;;9.38;3.15;;;;;;;24.75;53.12;98843.69;5092340;28;20028;-45
2022/10/14 11:38:32;;;;;;;10.80;4.18;;;;;;;24.80;53.62;98843.63;5092564;28;20028;-45
2022/10/14 11:41:05;;;;;;;10.60;4.00;;;;;;;24.84;53.76;98847.34;5090846;28;20401;-45
2022/10/14 11:43:58;;;;;;;6.93;3.65;;;;;;;24.63;53.73;98844.13;5090910;28;20115;-45
2022/10/14 11:46:28;;;;;;;7.60;3.63;;;;;;;24.34;55.42;98839.63;5092154;28;20032;-45